sensor_id;sensor_type;location;lat;lon;timestamp;temperature;humidity
46676;DHT22;32412;51.478;5.694;2023-02-12T07:16:18;7.20;99.90
46676;DHT22;32412;51.478;5.694;2023-02-12T07:18:47;7.20;99.90
46676;DHT22;32412;51.478;5.694;2023-02-12T07:21:14;7.20;99.90
46676;DHT22;32412;51.478;5.694;2023-02-12T07:23:44;7.20;99.90
46676;DHT22;32412;51.478;5.694;2023-02-12T07:26:12;7.30;99.90
46676;DHT22;32412;51.478;5.694;2023-02-12T07:28:38;7.10;99.90
46676;DHT22;32412;51.478;5.694;2023-02-12T07:31:12;7.20;99.90
46676;DHT22;32412;51.478;5.694;2023-02-12T07:33:38;7.20;99.90
46676;DHT22;32412;51.478;5.694;2023-02-12T07:36:06;7.20;99.90
46676;DHT22;32412;51.478;5.694;2023-02-12T07:38:32;7.20;99.90
46676;DHT22;32412;51.478;5.694;2023-02-12T07:41:08;7.20;99.90
46676;DHT22;32412;51.478;5.694;2023-02-12T07:43:34;7.20;99.90
46676;DHT22;32412;51.478;5.694;2023-02-12T07:48:33;7.30;99.90
46676;DHT22;32412;51.478;5.694;2023-02-12T07:51:03;7.30;99.90
46676;DHT22;32412;51.478;5.694;2023-02-12T07:53:31;7.30;99.90
46676;DHT22;32412;51.478;5.694;2023-02-12T07:56:19;7.30;99.90
46676;DHT22;32412;51.478;5.694;2023-02-12T07:58:59;7.30;99.90
46676;DHT22;32412;51.478;5.694;2023-02-12T08:01:35;7.40;99.90
46676;DHT22;32412;51.478;5.694;2023-02-12T08:04:04;7.40;99.90
46676;DHT22;32412;51.478;5.694;2023-02-12T08:06:32;7.40;99.90
46676;DHT22;32412;51.478;5.694;2023-02-12T08:09:00;7.40;99.90
46676;DHT22;32412;51.478;5.694;2023-02-12T08:11:27;7.50;99.90
46676;DHT22;32412;51.478;5.694;2023-02-12T08:13:54;7.50;99.90
46676;DHT22;32412;51.478;5.694;2023-02-12T08:16:21;7.50;99.90
46676;DHT22;32412;51.478;5.694;2023-02-12T08:18:48;7.50;99.90
46676;DHT22;32412;51.478;5.694;2023-02-12T08:21:20;7.60;99.90
46676;DHT22;32412;51.478;5.694;2023-02-12T08:23:47;7.60;99.90
46676;DHT22;32412;51.478;5.694;2023-02-12T08:28:46;7.80;99.90
46676;DHT22;32412;51.478;5.694;2023-02-12T08:31:17;7.90;99.90
46676;DHT22;32412;51.478;5.694;2023-02-12T08:33:46;7.90;99.90
46676;DHT22;32412;51.478;5.694;2023-02-12T08:36:14;7.90;99.90
46676;DHT22;32412;51.478;5.694;2023-02-12T08:38:44;7.80;99.90
46676;DHT22;32412;51.478;5.694;2023-02-12T08:41:12;7.90;99.90
46676;DHT22;32412;51.478;5.694;2023-02-12T08:43:39;8.00;99.90
46676;DHT22;32412;51.478;5.694;2023-02-12T08:46:11;8.00;99.90
46676;DHT22;32412;51.478;5.694;2023-02-12T08:48:39;8.00;99.90
46676;DHT22;32412;51.478;5.694;2023-02-12T08:51:14;8.10;99.90
46676;DHT22;32412;51.478;5.694;2023-02-12T08:53:42;8.10;99.90
46676;DHT22;32412;51.478;5.694;2023-02-12T08:56:09;8.10;99.90
46676;DHT22;32412;51.478;5.694;2023-02-12T08:58:36;8.20;99.90
46676;DHT22;32412;51.478;5.694;2023-02-12T09:01:04;8.20;99.90
46676;DHT22;32412;51.478;5.694;2023-02-12T09:03:30;8.30;99.90
46676;DHT22;32412;51.478;5.694;2023-02-12T09:05:56;8.30;99.90
46676;DHT22;32412;51.478;5.694;2023-02-12T09:08:21;8.30;99.90
46676;DHT22;32412;51.478;5.694;2023-02-12T09:10:47;8.40;99.90
46676;DHT22;32412;51.478;5.694;2023-02-12T09:13:13;8.40;99.90
46676;DHT22;32412;51.478;5.694;2023-02-12T09:15:42;8.40;99.90
46676;DHT22;32412;51.478;5.694;2023-02-12T09:18:08;8.50;99.90
46676;DHT22;32412;51.478;5.694;2023-02-12T09:20:41;8.50;99.90
46676;DHT22;32412;51.478;5.694;2023-02-12T09:23:09;8.60;99.90
46676;DHT22;32412;51.478;5.694;2023-02-12T09:25:39;8.60;99.90
46676;DHT22;32412;51.478;5.694;2023-02-12T09:28:05;8.60;99.90
46676;DHT22;32412;51.478;5.694;2023-02-12T09:30:32;8.70;99.90
46676;DHT22;32412;51.478;5.694;2023-02-12T09:32:57;8.70;99.90
46676;DHT22;32412;51.478;5.694;2023-02-12T09:35:23;8.70;99.90
46676;DHT22;32412;51.478;5.694;2023-02-12T09:37:51;8.80;99.90
46676;DHT22;32412;51.478;5.694;2023-02-12T09:40:34;8.80;99.90
46676;DHT22;32412;51.478;5.694;2023-02-12T09:43:17;8.90;99.90
46676;DHT22;32412;51.478;5.694;2023-02-12T09:45:54;9.00;99.90
46676;DHT22;32412;51.478;5.694;2023-02-12T09:51:09;9.00;99.90
46676;DHT22;32412;51.478;5.694;2023-02-12T09:53:42;9.00;99.90
46676;DHT22;32412;51.478;5.694;2023-02-12T09:56:43;9.10;99.90
46676;DHT22;32412;51.478;5.694;2023-02-12T09:59:13;9.30;99.90
46676;DHT22;32412;51.478;5.694;2023-02-12T10:01:41;9.40;99.90
46676;DHT22;32412;51.478;5.694;2023-02-12T10:04:06;9.40;99.90
46676;DHT22;32412;51.478;5.694;2023-02-12T10:06:47;9.50;99.90
46676;DHT22;32412;51.478;5.694;2023-02-12T10:12:39;9.50;99.90
46676;DHT22;32412;51.478;5.694;2023-02-12T10:26:13;9.70;99.90
46676;DHT22;32412;51.478;5.694;2023-02-12T10:28:43;9.70;99.90
46676;DHT22;32412;51.478;5.694;2023-02-12T10:33:48;9.90;99.90
46676;DHT22;32412;51.478;5.694;2023-02-12T10:39:17;9.90;99.90
46676;DHT22;32412;51.478;5.694;2023-02-12T10:41:48;10.10;99.90
46676;DHT22;32412;51.478;5.694;2023-02-12T10:44:15;10.10;99.90
46676;DHT22;32412;51.478;5.694;2023-02-12T10:46:55;10.10;99.90
46676;DHT22;32412;51.478;5.694;2023-02-12T10:49:21;10.10;99.90
46676;DHT22;32412;51.478;5.694;2023-02-12T10:54:37;10.10;99.90
46676;DHT22;32412;51.478;5.694;2023-02-12T10:57:18;10.10;99.90
46676;DHT22;32412;51.478;5.694;2023-02-12T10:59:47;10.00;99.90
46676;DHT22;32412;51.478;5.694;2023-02-12T11:02:32;10.00;99.90
46676;DHT22;32412;51.478;5.694;2023-02-12T11:05:19;10.00;99.90
46676;DHT22;32412;51.478;5.694;2023-02-12T11:07:48;10.00;99.90
46676;DHT22;32412;51.478;5.694;2023-02-12T11:10:40;10.00;99.90
46676;DHT22;32412;51.478;5.694;2023-02-12T11:13:22;10.00;99.90
46676;DHT22;32412;51.478;5.694;2023-02-12T11:15:49;10.00;99.90
46676;DHT22;32412;51.478;5.694;2023-02-12T11:18:29;10.00;99.90
46676;DHT22;32412;51.478;5.694;2023-02-12T11:23:33;10.10;99.90
46676;DHT22;32412;51.478;5.694;2023-02-12T11:26:03;10.10;99.90
46676;DHT22;32412;51.478;5.694;2023-02-12T11:28:31;10.20;99.90
46676;DHT22;32412;51.478;5.694;2023-02-12T11:31:25;10.10;99.90
46676;DHT22;32412;51.478;5.694;2023-02-12T11:34:17;10.20;99.90
46676;DHT22;32412;51.478;5.694;2023-02-12T11:36:51;10.30;99.90
46676;DHT22;32412;51.478;5.694;2023-02-12T11:39:26;10.20;99.90
46676;DHT22;32412;51.478;5.694;2023-02-12T11:41:55;10.20;99.90
46676;DHT22;32412;51.478;5.694;2023-02-12T11:47:29;10.20;99.90
46676;DHT22;32412;51.478;5.694;2023-02-12T11:50:07;10.00;99.90
46676;DHT22;32412;51.478;5.694;2023-02-12T11:52:35;10.00;99.90
46676;DHT22;32412;51.478;5.694;2023-02-12T11:55:05;10.10;99.90
46676;DHT22;32412;51.478;5.694;2023-02-12T11:57:35;10.20;99.90
46676;DHT22;32412;51.478;5.694;2023-02-12T12:00:09;10.30;99.90
46676;DHT22;32412;51.478;5.694;2023-02-12T12:02:37;10.30;99.90
46676;DHT22;32412;51.478;5.694;2023-02-12T12:05:17;10.30;99.90
46676;DHT22;32412;51.478;5.694;2023-02-12T12:07:57;10.30;99.90
46676;DHT22;32412;51.478;5.694;2023-02-12T12:10:57;10.30;99.90
46676;DHT22;32412;51.478;5.694;2023-02-12T12:13:26;10.30;99.90
46676;DHT22;32412;51.478;5.694;2023-02-12T12:16:07;10.30;99.90
46676;DHT22;32412;51.478;5.694;2023-02-12T12:19:10;10.40;99.90
46676;DHT22;32412;51.478;5.694;2023-02-12T12:24:48;10.30;99.90
46676;DHT22;32412;51.478;5.694;2023-02-12T12:27:26;10.40;99.90
46676;DHT22;32412;51.478;5.694;2023-02-12T12:33:37;10.40;99.90
46676;DHT22;32412;51.478;5.694;2023-02-12T12:48:07;10.50;99.90
46676;DHT22;32412;51.478;5.694;2023-02-12T12:56:51;10.30;99.90
46676;DHT22;32412;51.478;5.694;2023-02-12T12:59:44;10.40;99.90
46676;DHT22;32412;51.478;5.694;2023-02-12T13:16:26;10.60;99.90
46676;DHT22;32412;51.478;5.694;2023-02-12T13:27:13;10.50;99.90
46676;DHT22;32412;51.478;5.694;2023-02-12T13:29:44;10.40;99.90
46676;DHT22;32412;51.478;5.694;2023-02-12T13:34:45;10.40;99.90
46676;DHT22;32412;51.478;5.694;2023-02-12T13:37:39;10.40;99.90
46676;DHT22;32412;51.478;5.694;2023-02-12T13:40:14;10.40;99.90
46676;DHT22;32412;51.478;5.694;2023-02-12T13:48:22;10.30;99.90
46676;DHT22;32412;51.478;5.694;2023-02-12T13:51:20;10.40;99.90
46676;DHT22;32412;51.478;5.694;2023-02-12T13:54:14;10.30;99.90
46676;DHT22;32412;51.478;5.694;2023-02-12T14:02:01;10.30;99.90
46676;DHT22;32412;51.478;5.694;2023-02-12T14:04:31;10.20;99.90
46676;DHT22;32412;51.478;5.694;2023-02-12T14:07:03;10.10;99.90
46676;DHT22;32412;51.478;5.694;2023-02-12T14:09:38;10.10;99.90
46676;DHT22;32412;51.478;5.694;2023-02-12T14:12:29;10.10;99.90
46676;DHT22;32412;51.478;5.694;2023-02-12T14:15:08;10.10;99.90
46676;DHT22;32412;51.478;5.694;2023-02-12T14:20:26;10.20;99.90
46676;DHT22;32412;51.478;5.694;2023-02-12T14:23:20;10.20;99.90
46676;DHT22;32412;51.478;5.694;2023-02-12T14:36:44;10.20;99.90
46676;DHT22;32412;51.478;5.694;2023-02-12T14:42:40;10.20;99.90
46676;DHT22;32412;51.478;5.694;2023-02-12T14:44:53;10.20;99.90
46676;DHT22;32412;51.478;5.694;2023-02-12T14:50:13;10.20;99.90
46676;DHT22;32412;51.478;5.694;2023-02-12T14:52:40;10.10;99.90
46676;DHT22;32412;51.478;5.694;2023-02-12T14:55:28;10.10;99.90
46676;DHT22;32412;51.478;5.694;2023-02-12T14:57:58;10.10;99.90
46676;DHT22;32412;51.478;5.694;2023-02-12T15:00:34;10.10;99.90
46676;DHT22;32412;51.478;5.694;2023-02-12T15:08:12;9.90;99.90
46676;DHT22;32412;51.478;5.694;2023-02-12T15:11:21;9.90;99.90
46676;DHT22;32412;51.478;5.694;2023-02-12T15:19:46;9.80;99.90
46676;DHT22;32412;51.478;5.694;2023-02-12T15:24:46;9.90;99.90
46676;DHT22;32412;51.478;5.694;2023-02-12T15:27:16;9.80;99.90
46676;DHT22;32412;51.478;5.694;2023-02-12T15:29:51;9.80;99.90
46676;DHT22;32412;51.478;5.694;2023-02-12T15:32:28;9.80;99.90
46676;DHT22;32412;51.478;5.694;2023-02-12T15:34:55;9.80;99.90
46676;DHT22;32412;51.478;5.694;2023-02-12T15:37:26;9.80;99.90
46676;DHT22;32412;51.478;5.694;2023-02-12T15:39:55;9.70;99.90
46676;DHT22;32412;51.478;5.694;2023-02-12T15:44:48;9.80;99.90
46676;DHT22;32412;51.478;5.694;2023-02-12T15:47:14;9.80;99.90
46676;DHT22;32412;51.478;5.694;2023-02-12T15:49:42;9.70;99.90
46676;DHT22;32412;51.478;5.694;2023-02-12T15:52:22;9.70;99.90
46676;DHT22;32412;51.478;5.694;2023-02-12T15:54:57;9.60;99.90
46676;DHT22;32412;51.478;5.694;2023-02-12T15:57:24;9.60;99.90
46676;DHT22;32412;51.478;5.694;2023-02-12T15:59:56;9.60;99.90
46676;DHT22;32412;51.478;5.694;2023-02-12T16:02:26;9.60;99.90
46676;DHT22;32412;51.478;5.694;2023-02-12T16:06:42;9.50;99.90
46676;DHT22;32412;51.478;5.694;2023-02-12T16:09:15;9.50;99.90
46676;DHT22;32412;51.478;5.694;2023-02-12T16:11:44;9.50;99.90
46676;DHT22;32412;51.478;5.694;2023-02-12T16:14:26;9.40;99.90
46676;DHT22;32412;51.478;5.694;2023-02-12T16:16:54;9.40;99.90
46676;DHT22;32412;51.478;5.694;2023-02-12T16:19:29;9.40;99.90
46676;DHT22;32412;51.478;5.694;2023-02-12T16:22:14;9.40;99.90
46676;DHT22;32412;51.478;5.694;2023-02-12T16:24:44;9.30;99.90
46676;DHT22;32412;51.478;5.694;2023-02-12T16:29:47;9.30;99.90
46676;DHT22;32412;51.478;5.694;2023-02-12T16:35:02;9.30;99.90
46676;DHT22;32412;51.478;5.694;2023-02-12T16:40:09;9.20;99.90
46676;DHT22;32412;51.478;5.694;2023-02-12T16:48:00;9.10;99.90
46676;DHT22;32412;51.478;5.694;2023-02-12T16:50:32;9.00;99.90
46676;DHT22;32412;51.478;5.694;2023-02-12T16:53:07;9.00;99.90
46676;DHT22;32412;51.478;5.694;2023-02-12T16:55:47;9.00;99.90
46676;DHT22;32412;51.478;5.694;2023-02-12T16:58:12;9.00;99.90
46676;DHT22;32412;51.478;5.694;2023-02-12T17:00:38;9.00;99.90
46676;DHT22;32412;51.478;5.694;2023-02-12T17:03:04;8.90;99.90
46676;DHT22;32412;51.478;5.694;2023-02-12T17:05:29;8.90;99.90
46676;DHT22;32412;51.478;5.694;2023-02-12T17:07:55;8.90;99.90
46676;DHT22;32412;51.478;5.694;2023-02-12T17:10:21;8.90;99.90
46676;DHT22;32412;51.478;5.694;2023-02-12T17:12:49;8.90;99.90
46676;DHT22;32412;51.478;5.694;2023-02-12T17:15:29;8.90;99.90
46676;DHT22;32412;51.478;5.694;2023-02-12T17:17:59;8.90;99.90
46676;DHT22;32412;51.478;5.694;2023-02-12T17:20:25;8.90;99.90
46676;DHT22;32412;51.478;5.694;2023-02-12T17:22:53;8.90;99.90
46676;DHT22;32412;51.478;5.694;2023-02-12T17:25:19;8.80;99.90
46676;DHT22;32412;51.478;5.694;2023-02-12T17:27:45;8.80;99.90
46676;DHT22;32412;51.478;5.694;2023-02-12T17:30:18;8.80;99.90
46676;DHT22;32412;51.478;5.694;2023-02-12T17:32:48;8.80;99.90
46676;DHT22;32412;51.478;5.694;2023-02-12T17:35:15;8.70;99.90
46676;DHT22;32412;51.478;5.694;2023-02-12T17:37:40;8.70;99.90
46676;DHT22;32412;51.478;5.694;2023-02-12T17:40:09;8.80;99.90
46676;DHT22;32412;51.478;5.694;2023-02-12T17:42:40;8.80;99.90
46676;DHT22;32412;51.478;5.694;2023-02-12T17:45:06;8.80;99.90
46676;DHT22;32412;51.478;5.694;2023-02-12T17:47:32;8.70;99.90
46676;DHT22;32412;51.478;5.694;2023-02-12T17:50:08;8.80;99.90
46676;DHT22;32412;51.478;5.694;2023-02-12T17:52:34;8.70;99.90
46676;DHT22;32412;51.478;5.694;2023-02-12T17:55:00;8.70;99.90
46676;DHT22;32412;51.478;5.694;2023-02-12T17:57:25;8.70;99.90
46676;DHT22;32412;51.478;5.694;2023-02-12T17:59:51;8.70;99.90
46676;DHT22;32412;51.478;5.694;2023-02-12T18:02:17;8.60;99.90
46676;DHT22;32412;51.478;5.694;2023-02-12T18:04:42;8.60;99.90
46676;DHT22;32412;51.478;5.694;2023-02-12T18:07:08;8.60;99.90
46676;DHT22;32412;51.478;5.694;2023-02-12T18:09:35;8.60;99.90
46676;DHT22;32412;51.478;5.694;2023-02-12T18:12:02;8.60;99.90
46676;DHT22;32412;51.478;5.694;2023-02-12T18:14:28;8.60;99.90
46676;DHT22;32412;51.478;5.694;2023-02-12T18:16:53;8.60;99.90
46676;DHT22;32412;51.478;5.694;2023-02-12T18:19:19;8.60;99.90
46676;DHT22;32412;51.478;5.694;2023-02-12T18:21:45;8.60;99.90
46676;DHT22;32412;51.478;5.694;2023-02-12T18:24:11;8.50;99.90
46676;DHT22;32412;51.478;5.694;2023-02-12T18:26:36;8.50;99.90
46676;DHT22;32412;51.478;5.694;2023-02-12T18:29:02;8.50;99.90
46676;DHT22;32412;51.478;5.694;2023-02-12T18:31:27;8.50;99.90
46676;DHT22;32412;51.478;5.694;2023-02-12T18:33:53;8.60;99.90
46676;DHT22;32412;51.478;5.694;2023-02-12T18:36:20;8.50;99.90
46676;DHT22;32412;51.478;5.694;2023-02-12T18:38:47;8.50;99.90
46676;DHT22;32412;51.478;5.694;2023-02-12T18:41:27;8.60;99.90
46676;DHT22;32412;51.478;5.694;2023-02-12T18:43:53;8.50;99.90
46676;DHT22;32412;51.478;5.694;2023-02-12T18:46:25;8.50;99.90
46676;DHT22;32412;51.478;5.694;2023-02-12T18:48:51;8.50;99.90
46676;DHT22;32412;51.478;5.694;2023-02-12T18:51:20;8.50;99.90
46676;DHT22;32412;51.478;5.694;2023-02-12T18:53:53;8.50;99.90
46676;DHT22;32412;51.478;5.694;2023-02-12T18:56:19;8.40;99.90
46676;DHT22;32412;51.478;5.694;2023-02-12T18:58:45;8.40;99.90
46676;DHT22;32412;51.478;5.694;2023-02-12T19:01:18;8.40;99.90
46676;DHT22;32412;51.478;5.694;2023-02-12T19:03:46;8.30;99.90
46676;DHT22;32412;51.478;5.694;2023-02-12T19:06:15;8.30;99.90
46676;DHT22;32412;51.478;5.694;2023-02-12T19:08:41;8.30;99.90
46676;DHT22;32412;51.478;5.694;2023-02-12T19:11:09;8.20;99.90
46676;DHT22;32412;51.478;5.694;2023-02-12T19:13:35;8.20;99.90
46676;DHT22;32412;51.478;5.694;2023-02-12T19:16:09;8.20;99.90
46676;DHT22;32412;51.478;5.694;2023-02-12T19:18:35;8.20;99.90
46676;DHT22;32412;51.478;5.694;2023-02-12T19:21:11;8.10;99.90
46676;DHT22;32412;51.478;5.694;2023-02-12T19:23:37;8.10;99.90
46676;DHT22;32412;51.478;5.694;2023-02-12T19:26:14;8.10;99.90
46676;DHT22;32412;51.478;5.694;2023-02-12T19:28:41;8.00;99.90
46676;DHT22;32412;51.478;5.694;2023-02-12T19:31:32;8.00;99.90
46676;DHT22;32412;51.478;5.694;2023-02-12T19:34:00;8.00;99.90
46676;DHT22;32412;51.478;5.694;2023-02-12T19:36:27;8.00;99.90
46676;DHT22;32412;51.478;5.694;2023-02-12T19:38:53;8.00;99.90
46676;DHT22;32412;51.478;5.694;2023-02-12T19:41:22;8.10;99.90
46676;DHT22;32412;51.478;5.694;2023-02-12T19:44:00;8.00;99.90
46676;DHT22;32412;51.478;5.694;2023-02-12T19:46:30;8.00;99.90
46676;DHT22;32412;51.478;5.694;2023-02-12T19:48:57;8.00;99.90
46676;DHT22;32412;51.478;5.694;2023-02-12T19:51:24;8.00;99.90
46676;DHT22;32412;51.478;5.694;2023-02-12T19:53:50;7.90;99.90
46676;DHT22;32412;51.478;5.694;2023-02-12T19:56:16;8.00;99.90
46676;DHT22;32412;51.478;5.694;2023-02-12T19:58:43;8.00;99.90
46676;DHT22;32412;51.478;5.694;2023-02-12T20:01:17;8.00;99.90
46676;DHT22;32412;51.478;5.694;2023-02-12T20:04:05;8.00;99.90
46676;DHT22;32412;51.478;5.694;2023-02-12T20:07:03;8.00;99.90
46676;DHT22;32412;51.478;5.694;2023-02-12T20:09:28;7.90;99.90
46676;DHT22;32412;51.478;5.694;2023-02-12T20:11:54;7.90;99.90
46676;DHT22;32412;51.478;5.694;2023-02-12T20:14:21;7.90;99.90
46676;DHT22;32412;51.478;5.694;2023-02-12T20:16:48;8.00;99.90
46676;DHT22;32412;51.478;5.694;2023-02-12T20:19:19;7.90;99.90
46676;DHT22;32412;51.478;5.694;2023-02-12T20:21:45;7.90;99.90
46676;DHT22;32412;51.478;5.694;2023-02-12T20:24:13;7.90;99.90
46676;DHT22;32412;51.478;5.694;2023-02-12T20:26:38;8.00;99.90
46676;DHT22;32412;51.478;5.694;2023-02-12T20:29:04;7.90;99.90
46676;DHT22;32412;51.478;5.694;2023-02-12T20:31:32;7.90;99.90
46676;DHT22;32412;51.478;5.694;2023-02-12T20:34:00;7.90;99.90
46676;DHT22;32412;51.478;5.694;2023-02-12T20:36:30;7.90;99.90
46676;DHT22;32412;51.478;5.694;2023-02-12T20:38:58;7.80;99.90
46676;DHT22;32412;51.478;5.694;2023-02-12T20:41:25;7.90;99.90
46676;DHT22;32412;51.478;5.694;2023-02-12T20:43:52;7.80;99.90
46676;DHT22;32412;51.478;5.694;2023-02-12T20:46:20;7.80;99.90
46676;DHT22;32412;51.478;5.694;2023-02-12T20:48:47;7.90;99.90
46676;DHT22;32412;51.478;5.694;2023-02-12T20:51:15;7.80;99.90
46676;DHT22;32412;51.478;5.694;2023-02-12T20:53:42;7.80;99.90
46676;DHT22;32412;51.478;5.694;2023-02-12T20:56:10;7.80;99.90
46676;DHT22;32412;51.478;5.694;2023-02-12T20:58:36;7.80;99.90
46676;DHT22;32412;51.478;5.694;2023-02-12T21:01:11;7.80;99.90
46676;DHT22;32412;51.478;5.694;2023-02-12T21:03:37;7.80;99.90
46676;DHT22;32412;51.478;5.694;2023-02-12T21:06:03;7.80;99.90
46676;DHT22;32412;51.478;5.694;2023-02-12T21:08:30;7.70;99.90
46676;DHT22;32412;51.478;5.694;2023-02-12T21:11:08;7.70;99.90
46676;DHT22;32412;51.478;5.694;2023-02-12T21:13:37;7.80;99.90
46676;DHT22;32412;51.478;5.694;2023-02-12T21:16:19;7.80;99.90
46676;DHT22;32412;51.478;5.694;2023-02-12T21:18:45;7.70;99.90
46676;DHT22;32412;51.478;5.694;2023-02-12T21:21:13;7.70;99.90
46676;DHT22;32412;51.478;5.694;2023-02-12T21:23:39;7.60;99.90
46676;DHT22;32412;51.478;5.694;2023-02-12T21:26:13;7.50;99.90
46676;DHT22;32412;51.478;5.694;2023-02-12T21:28:40;7.50;99.90
46676;DHT22;32412;51.478;5.694;2023-02-12T21:31:11;7.40;99.90
46676;DHT22;32412;51.478;5.694;2023-02-12T21:33:38;7.30;99.90
46676;DHT22;32412;51.478;5.694;2023-02-12T21:36:06;7.20;99.90
46676;DHT22;32412;51.478;5.694;2023-02-12T21:38:34;7.20;99.90
46676;DHT22;32412;51.478;5.694;2023-02-12T21:41:26;7.10;99.90
46676;DHT22;32412;51.478;5.694;2023-02-12T21:43:58;7.00;99.90
46676;DHT22;32412;51.478;5.694;2023-02-12T21:46:24;6.90;99.90
46676;DHT22;32412;51.478;5.694;2023-02-12T21:48:50;6.90;99.90
46676;DHT22;32412;51.478;5.694;2023-02-12T21:51:24;6.80;99.90
46676;DHT22;32412;51.478;5.694;2023-02-12T21:53:53;6.80;99.90
46676;DHT22;32412;51.478;5.694;2023-02-12T21:56:19;6.80;99.90
46676;DHT22;32412;51.478;5.694;2023-02-12T21:58:46;6.70;99.90
46676;DHT22;32412;51.478;5.694;2023-02-12T22:01:18;6.70;99.90
46676;DHT22;32412;51.478;5.694;2023-02-12T22:03:44;6.70;99.90
46676;DHT22;32412;51.478;5.694;2023-02-12T22:06:12;6.60;99.90
46676;DHT22;32412;51.478;5.694;2023-02-12T22:08:38;6.60;99.90
46676;DHT22;32412;51.478;5.694;2023-02-12T22:11:06;6.50;99.90
46676;DHT22;32412;51.478;5.694;2023-02-12T22:13:32;6.60;99.90
46676;DHT22;32412;51.478;5.694;2023-02-12T22:16:07;6.60;99.90
46676;DHT22;32412;51.478;5.694;2023-02-12T22:18:33;6.60;99.90
46676;DHT22;32412;51.478;5.694;2023-02-12T22:21:00;6.60;99.90
46676;DHT22;32412;51.478;5.694;2023-02-12T22:23:26;6.60;99.90
46676;DHT22;32412;51.478;5.694;2023-02-12T22:25:52;6.60;99.90
46676;DHT22;32412;51.478;5.694;2023-02-12T22:31:41;6.70;99.90
46676;DHT22;32412;51.478;5.694;2023-02-12T22:34:11;6.60;99.90
46676;DHT22;32412;51.478;5.694;2023-02-12T22:36:40;6.60;99.90
46676;DHT22;32412;51.478;5.694;2023-02-12T22:39:10;6.60;99.90
46676;DHT22;32412;51.478;5.694;2023-02-12T22:41:39;6.60;99.90
46676;DHT22;32412;51.478;5.694;2023-02-12T22:44:08;6.70;99.90
46676;DHT22;32412;51.478;5.694;2023-02-12T22:46:34;6.70;99.90
46676;DHT22;32412;51.478;5.694;2023-02-12T22:49:03;6.70;99.90
46676;DHT22;32412;51.478;5.694;2023-02-12T22:51:30;6.70;99.90
46676;DHT22;32412;51.478;5.694;2023-02-12T22:53:59;6.70;99.90
46676;DHT22;32412;51.478;5.694;2023-02-12T22:56:31;6.70;99.90
46676;DHT22;32412;51.478;5.694;2023-02-12T22:59:09;6.60;99.90
46676;DHT22;32412;51.478;5.694;2023-02-12T23:01:35;6.70;99.90
46676;DHT22;32412;51.478;5.694;2023-02-12T23:10:29;6.70;99.90
46676;DHT22;32412;51.478;5.694;2023-02-12T23:12:55;6.60;99.90
46676;DHT22;32412;51.478;5.694;2023-02-12T23:15:23;6.60;99.90
46676;DHT22;32412;51.478;5.694;2023-02-12T23:17:51;6.60;99.90
46676;DHT22;32412;51.478;5.694;2023-02-12T23:20:20;6.50;99.90
46676;DHT22;32412;51.478;5.694;2023-02-12T23:22:46;6.50;99.90
46676;DHT22;32412;51.478;5.694;2023-02-12T23:25:15;6.50;99.90
46676;DHT22;32412;51.478;5.694;2023-02-12T23:27:45;6.50;99.90
46676;DHT22;32412;51.478;5.694;2023-02-12T23:30:11;6.50;99.90
46676;DHT22;32412;51.478;5.694;2023-02-12T23:32:44;6.60;99.90
46676;DHT22;32412;51.478;5.694;2023-02-12T23:35:12;6.60;99.90
46676;DHT22;32412;51.478;5.694;2023-02-12T23:37:41;6.50;99.90
46676;DHT22;32412;51.478;5.694;2023-02-12T23:40:07;6.50;99.90
46676;DHT22;32412;51.478;5.694;2023-02-12T23:42:33;6.50;99.90
46676;DHT22;32412;51.478;5.694;2023-02-12T23:44:59;6.50;99.90
46676;DHT22;32412;51.478;5.694;2023-02-12T23:47:24;6.40;99.90
46676;DHT22;32412;51.478;5.694;2023-02-12T23:49:50;6.40;99.90
46676;DHT22;32412;51.478;5.694;2023-02-12T23:52:16;6.40;99.90
46676;DHT22;32412;51.478;5.694;2023-02-12T23:54:45;6.50;99.90
46676;DHT22;32412;51.478;5.694;2023-02-12T23:57:13;6.40;99.90
46676;DHT22;32412;51.478;5.694;2023-02-12T23:59:39;6.40;99.90
